Time;durP1;ratioP1;P1;durP2;ratioP2;P2;SDS_P1;SDS_P2;PMS_P1;PMS_P2;Temp;Humidity;BMP_temperature;BMP_pressure;BME280_temperature;BME280_humidity;BME280_pressure;Samples;Min_cycle;Max_cycle;Signal;HPM_P1;HPM_P2
2021/07/17 00:00:38;;;;;;;0.28;0.28;;;;;;;17.45;93.98;101502.28;5045827;28;20401;-85
2021/07/17 00:03:12;;;;;;;0.10;0.10;;;;;;;17.49;93.56;101506.06;5051758;28;20041;-84
2021/07/17 00:05:48;;;;;;;0.30;0.30;;;;;;;17.38;93.85;101481.84;5046998;28;20045;-84
2021/07/17 00:08:21;;;;;;;0.20;0.20;;;;;;;17.48;94.00;101500.88;5037394;28;20055;-85
2021/07/17 00:10:51;;;;;;;0.20;0.20;;;;;;;17.44;94.37;101499.84;5054084;28;20052;-84
2021/07/17 00:13:24;;;;;;;0.20;0.20;;;;;;;17.46;94.19;101498.44;5053708;28;20045;-85
2021/07/17 00:15:59;;;;;;;0.20;0.20;;;;;;;17.40;94.54;101488.66;5042258;28;20053;-85
2021/07/17 00:18:34;;;;;;;0.30;0.30;;;;;;;17.43;94.20;101501.81;5033018;28;20052;-84
2021/07/17 00:21:08;;;;;;;0.20;0.20;;;;;;;17.36;94.71;101487.63;5053919;28;20056;-83
2021/07/17 00:23:43;;;;;;;0.20;0.20;;;;;;;17.40;94.52;101496.91;5048685;28;20049;-84
2021/07/17 00:26:16;;;;;;;0.20;0.20;;;;;;;17.48;94.22;101503.63;5030476;28;20045;-84
2021/07/17 00:28:44;;;;;;;0.20;0.20;;;;;;;17.42;94.60;101496.59;5035164;28;20057;-85
2021/07/17 00:31:17;;;;;;;0.20;0.20;;;;;;;17.44;94.70;101503.44;5047601;28;20063;-84
2021/07/17 00:33:54;;;;;;;0.20;0.20;;;;;;;17.50;93.98;101502.19;5051642;28;20045;-85
2021/07/17 00:36:23;;;;;;;0.20;0.20;;;;;;;17.45;94.76;101490.47;5026073;28;20065;-84
2021/07/17 00:38:53;;;;;;;0.20;0.20;;;;;;;17.42;94.71;101493.84;5021613;28;20053;-84
2021/07/17 00:41:27;;;;;;;0.20;0.20;;;;;;;17.45;94.53;101498.75;5052718;28;20055;-84
2021/07/17 00:44:01;;;;;;;0.20;0.20;;;;;;;17.42;94.98;101497.41;5052033;28;20044;-84
2021/07/17 00:46:35;;;;;;;0.20;0.20;;;;;;;17.40;94.69;101491.41;5047028;28;20045;-84
2021/07/17 00:49:10;;;;;;;0.20;0.20;;;;;;;17.44;94.74;101494.34;5047612;28;20045;-83
2021/07/17 00:51:43;;;;;;;0.20;0.20;;;;;;;17.30;95.00;101492.44;5041873;28;20045;-84
2021/07/17 00:54:19;;;;;;;0.20;0.20;;;;;;;17.42;94.78;101502.09;5048589;28;20034;-84
2021/07/17 00:56:54;;;;;;;0.20;0.20;;;;;;;17.34;95.16;101485.19;5053080;28;20060;-84
2021/07/17 00:59:29;;;;;;;0.20;0.20;;;;;;;17.40;95.47;101490.56;5051671;28;20044;-85
2021/07/17 01:02:05;;;;;;;0.20;0.20;;;;;;;17.39;95.55;101489.78;5024869;28;20060;-85
2021/07/17 01:04:41;;;;;;;0.20;0.20;;;;;;;17.40;95.19;101498.84;5042228;28;20037;-85
2021/07/17 01:07:14;;;;;;;0.20;0.20;;;;;;;17.31;96.04;101490.50;5032502;28;20477;-84
2021/07/17 01:09:43;;;;;;;0.20;0.20;;;;;;;17.41;95.81;101497.72;5017324;28;20064;-84
2021/07/17 01:12:16;;;;;;;0.25;0.25;;;;;;;17.38;95.42;101499.16;5046957;28;20048;-84
2021/07/17 01:14:49;;;;;;;0.20;0.20;;;;;;;17.36;95.38;101498.66;5034789;28;20060;-83
2021/07/17 01:17:24;;;;;;;0.20;0.20;;;;;;;17.40;94.33;101496.06;5052723;28;20063;-84
2021/07/17 01:20:00;;;;;;;0.20;0.20;;;;;;;17.44;95.42;101500.69;5052980;28;20044;-84
2021/07/17 01:22:36;;;;;;;0.30;0.30;;;;;;;17.39;95.09;101506.28;5044790;28;20052;-84
2021/07/17 01:25:12;;;;;;;0.10;0.10;;;;;;;17.41;95.47;101497.72;5033020;28;20053;-83
2021/07/17 01:27:45;;;;;;;0.20;0.20;;;;;;;17.32;95.59;101505.88;5049362;28;20394;-84
2021/07/17 01:30:21;;;;;;;0.20;0.20;;;;;;;17.30;95.74;101506.19;5038613;28;20049;-84
2021/07/17 01:32:54;;;;;;;0.10;0.10;;;;;;;17.33;95.65;101507.50;5046895;28;20049;-84
2021/07/17 01:35:29;;;;;;;0.20;0.20;;;;;;;17.33;95.20;101507.50;5044868;28;20506;-84
2021/07/17 01:38:05;;;;;;;0.20;0.20;;;;;;;17.36;95.22;101506.91;5050369;28;20053;-84
2021/07/17 01:40:38;;;;;;;0.30;0.30;;;;;;;17.34;95.73;101509.13;5050470;28;20048;-84
2021/07/17 01:43:11;;;;;;;0.20;0.20;;;;;;;17.27;95.92;101511.47;5034019;28;20053;-85
2021/07/17 01:45:40;;;;;;;0.20;0.20;;;;;;;17.36;94.87;101517.06;5051243;28;20053;-84
2021/07/17 01:48:15;;;;;;;0.20;0.20;;;;;;;17.28;95.81;101515.88;5033322;28;20513;-83
2021/07/17 01:50:48;;;;;;;0.13;0.13;;;;;;;17.28;95.08;101505.66;5036764;28;20049;-84
2021/07/17 01:53:24;;;;;;;0.15;0.15;;;;;;;17.23;96.13;101505.75;5031289;28;20771;-84
2021/07/17 01:55:57;;;;;;;0.28;0.28;;;;;;;17.17;95.75;101502.28;5044718;28;20052;-84
2021/07/17 01:58:30;;;;;;;0.20;0.20;;;;;;;17.23;95.44;101503.00;5051501;28;20037;-84
2021/07/17 02:01:04;;;;;;;0.20;0.20;;;;;;;17.20;95.98;101492.63;5051741;28;20044;-84
2021/07/17 02:03:44;;;;;;;0.15;0.15;;;;;;;17.19;96.14;101482.72;5024954;28;20087;-83
2021/07/17 02:06:23;;;;;;;0.20;0.20;;;;;;;17.14;96.24;101489.16;5031195;28;20068;-84
2021/07/17 02:08:58;;;;;;;0.20;0.20;;;;;;;17.18;96.13;101489.38;5048313;28;20056;-84
2021/07/17 02:11:33;;;;;;;0.20;0.20;;;;;;;17.16;96.20;101492.41;5047205;28;20045;-84
2021/07/17 02:14:01;;;;;;;0.20;0.20;;;;;;;17.10;96.36;101493.63;5032710;28;20048;-83
2021/07/17 02:16:30;;;;;;;0.20;0.20;;;;;;;17.14;95.79;101494.66;5047212;28;20052;-85
2021/07/17 02:19:08;;;;;;;0.20;0.20;;;;;;;17.08;95.82;101479.38;5048931;28;20051;-84
2021/07/17 02:21:37;;;;;;;0.20;0.20;;;;;;;17.03;96.00;101487.72;5042046;28;20032;-84
2021/07/17 02:24:11;;;;;;;0.20;0.20;;;;;;;17.13;95.42;101487.53;5045051;28;20561;-84
2021/07/17 02:26:45;;;;;;;0.25;0.25;;;;;;;17.02;96.53;101497.09;5029521;28;20486;-83
2021/07/17 02:29:18;;;;;;;0.20;0.20;;;;;;;16.98;96.70;101499.63;5049666;28;20381;-84
2021/07/17 02:31:55;;;;;;;0.20;0.20;;;;;;;17.03;95.45;101493.22;5042658;28;20041;-84
2021/07/17 02:34:29;;;;;;;0.20;0.20;;;;;;;17.00;95.68;101497.41;5050433;28;20477;-84
2021/07/17 02:37:03;;;;;;;0.20;0.20;;;;;;;16.94;96.05;101486.78;5051650;28;20045;-83
2021/07/17 02:39:37;;;;;;;0.20;0.20;;;;;;;17.02;95.96;101499.84;5050303;28;20048;-84
2021/07/17 02:42:11;;;;;;;0.20;0.20;;;;;;;16.98;95.39;101493.31;5023310;28;20068;-84
2021/07/17 02:44:41;;;;;;;0.10;0.10;;;;;;;17.02;95.16;101496.28;5051323;28;20049;-84
2021/07/17 02:47:14;;;;;;;0.20;0.20;;;;;;;16.92;96.19;101500.84;5030969;28;20041;-84
2021/07/17 02:49:47;;;;;;;0.20;0.20;;;;;;;16.79;97.03;101502.44;5027113;28;20053;-83
2021/07/17 02:52:21;;;;;;;0.20;0.20;;;;;;;16.82;97.23;101507.31;5053856;28;20119;-84
2021/07/17 02:54:55;;;;;;;0.20;0.20;;;;;;;16.82;96.65;101506.47;5047535;28;20048;-84
2021/07/17 02:57:28;;;;;;;0.15;0.15;;;;;;;16.92;96.49;101500.03;5047853;28;20045;-84
2021/07/17 03:00:07;;;;;;;0.20;0.20;;;;;;;16.88;96.21;101501.72;5051812;28;20044;-85
2021/07/17 03:02:41;;;;;;;0.20;0.20;;;;;;;16.94;95.52;101495.84;5033570;28;20543;-84
2021/07/17 03:05:15;;;;;;;0.13;0.13;;;;;;;16.81;96.43;101507.63;5051318;28;20062;-84
2021/07/17 03:07:48;;;;;;;0.20;0.13;;;;;;;16.69;97.06;101490.78;5051242;28;20048;-84
2021/07/17 03:10:23;;;;;;;0.10;0.10;;;;;;;16.78;97.39;101502.72;5036602;28;20060;-84
2021/07/17 03:12:56;;;;;;;0.20;0.20;;;;;;;16.82;97.27;101500.97;5037820;28;20048;-84
2021/07/17 03:15:30;;;;;;;0.20;0.20;;;;;;;16.86;97.20;101495.69;5060224;28;20041;-84
2021/07/17 03:18:03;;;;;;;0.10;0.10;;;;;;;16.84;97.26;101493.25;5054003;28;20044;-85
2021/07/17 03:20:37;;;;;;;0.20;0.20;;;;;;;16.87;96.60;101494.59;5052754;28;20574;-84
2021/07/17 03:23:10;;;;;;;0.20;0.20;;;;;;;16.82;97.54;101485.31;5059179;28;20402;-84
2021/07/17 03:25:45;;;;;;;0.20;0.20;;;;;;;16.91;97.64;101495.66;5036367;28;20052;-84
2021/07/17 03:28:19;;;;;;;0.20;0.20;;;;;;;16.92;97.44;101494.53;5036159;28;20045;-83
2021/07/17 03:30:55;;;;;;;0.20;0.20;;;;;;;16.92;97.63;101497.28;5036677;28;20482;-84
2021/07/17 03:33:29;;;;;;;0.20;0.20;;;;;;;16.94;97.75;101493.09;5051522;28;20060;-84
2021/07/17 03:36:02;;;;;;;0.20;0.20;;;;;;;16.99;98.03;101497.69;5045726;28;20057;-84
2021/07/17 03:38:36;;;;;;;0.20;0.20;;;;;;;17.04;97.63;101507.78;5046497;28;20045;-84
2021/07/17 03:41:05;;;;;;;0.17;0.17;;;;;;;17.08;97.87;101503.31;5054155;28;20144;-84
2021/07/17 03:43:38;;;;;;;0.20;0.20;;;;;;;17.09;97.98;101505.75;5052791;28;20075;-83
2021/07/17 03:46:12;;;;;;;0.20;0.20;;;;;;;17.10;97.84;101504.63;5042361;28;20549;-84
2021/07/17 03:48:45;;;;;;;0.20;0.20;;;;;;;17.15;97.37;101512.78;5048449;28;20052;-84
2021/07/17 03:51:18;;;;;;;0.20;0.20;;;;;;;17.17;97.29;101513.28;5051006;28;20409;-83
2021/07/17 03:53:46;;;;;;;0.20;0.20;;;;;;;17.23;97.94;101518.72;5034799;28;20059;-84
2021/07/17 03:56:21;;;;;;;0.20;0.20;;;;;;;17.16;98.03;101513.59;5035333;28;20049;-85
2021/07/17 03:58:54;;;;;;;0.20;0.20;;;;;;;17.23;97.53;101504.94;5053946;28;20044;-84
2021/07/17 04:01:22;;;;;;;0.10;0.10;;;;;;;17.27;97.89;101505.97;5048822;28;20079;-84
2021/07/17 04:03:57;;;;;;;0.20;0.20;;;;;;;17.29;97.73;101511.97;5053984;28;20064;-83
2021/07/17 04:06:26;;;;;;;0.20;0.20;;;;;;;17.30;97.86;101508.94;5045762;28;20058;-84
2021/07/17 04:08:59;;;;;;;0.20;0.20;;;;;;;17.33;97.67;101502.81;5064730;28;20044;-84
2021/07/17 04:11:34;;;;;;;0.10;0.10;;;;;;;17.35;97.80;101513.50;5055086;28;20056;-84
2021/07/17 04:14:07;;;;;;;0.20;0.20;;;;;;;17.33;97.65;101507.50;5054098;28;20394;-84
2021/07/17 04:16:40;;;;;;;0.20;0.20;;;;;;;17.42;97.58;101507.59;5044909;28;20045;-84
2021/07/17 04:19:14;;;;;;;0.20;0.20;;;;;;;17.43;97.32;101510.06;5049547;28;20037;-84
2021/07/17 04:21:47;;;;;;;0.20;0.20;;;;;;;17.49;97.23;101510.75;5047587;28;20045;-84
2021/07/17 04:24:20;;;;;;;0.20;0.20;;;;;;;17.44;97.13;101499.84;5055358;28;20056;-84
2021/07/17 04:26:55;;;;;;;0.20;0.20;;;;;;;17.56;97.12;101515.84;5043135;28;20063;-84
2021/07/17 04:29:28;;;;;;;0.25;0.25;;;;;;;17.55;96.90;101512.28;5035611;28;20049;-84
2021/07/17 04:32:01;;;;;;;0.10;0.10;;;;;;;17.56;96.99;101510.34;5034428;28;20064;-83
2021/07/17 04:34:35;;;;;;;0.20;0.20;;;;;;;17.57;96.48;101517.50;5045447;28;20057;-84
2021/07/17 04:37:08;;;;;;;0.20;0.20;;;;;;;17.75;96.51;101510.25;5035456;28;20544;-84
2021/07/17 04:39:41;;;;;;;0.10;0.10;;;;;;;17.79;96.19;101520.31;5053828;28;20045;-84
2021/07/17 04:42:17;;;;;;;0.10;0.10;;;;;;;17.73;95.89;101509.72;5053323;28;20400;-84
2021/07/17 04:44:50;;;;;;;0.20;0.20;;;;;;;17.75;96.52;101521.25;5053780;28;20037;-84
2021/07/17 04:47:24;;;;;;;0.20;0.20;;;;;;;17.75;96.13;101521.25;5036399;28;20053;-84
2021/07/17 04:50:02;;;;;;;0.20;0.20;;;;;;;17.75;95.95;101515.75;5043671;28;20048;-84
2021/07/17 04:52:36;;;;;;;0.10;0.10;;;;;;;17.81;95.38;101515.28;5035076;28;20060;-84
2021/07/17 04:55:10;;;;;;;0.20;0.20;;;;;;;17.91;95.28;101524.47;5053568;28;20045;-85
2021/07/17 04:57:45;;;;;;;0.20;0.20;;;;;;;18.01;94.99;101516.03;5035713;28;20425;-85
2021/07/17 05:00:20;;;;;;;0.20;0.20;;;;;;;18.04;94.91;101515.41;5049864;28;20049;-85
2021/07/17 05:02:55;;;;;;;0.43;0.20;;;;;;;18.13;94.41;101526.47;5031447;28;20398;-84
2021/07/17 05:05:24;;;;;;;0.17;0.17;;;;;;;18.13;94.56;101526.47;5014883;28;20084;-84
2021/07/17 05:07:57;;;;;;;0.20;0.20;;;;;;;18.25;94.22;101528.72;5058365;28;20414;-85
2021/07/17 05:10:31;;;;;;;0.32;0.20;;;;;;;18.34;93.18;101529.59;5030105;28;20425;-83
2021/07/17 05:13:13;;;;;;;0.10;0.10;;;;;;;18.41;93.58;101531.91;5043923;28;20046;-85
2021/07/17 05:15:47;;;;;;;0.20;0.20;;;;;;;18.62;92.50;101524.75;5036577;28;20397;-85
2021/07/17 05:18:21;;;;;;;0.20;0.20;;;;;;;19.07;90.06;101534.97;5054555;28;20051;-85
2021/07/17 05:20:54;;;;;;;0.20;0.20;;;;;;;19.39;88.26;101527.47;5031862;28;20045;-84
2021/07/17 05:23:27;;;;;;;0.20;0.20;;;;;;;20.23;86.22;101530.22;5046875;28;20057;-84
2021/07/17 05:26:01;;;;;;;0.20;0.17;;;;;;;20.17;83.18;101521.28;5025607;28;20049;-84
2021/07/17 05:28:36;;;;;;;0.20;0.20;;;;;;;20.50;81.88;101533.81;5032857;28;20513;-85
2021/07/17 05:31:09;;;;;;;0.10;0.10;;;;;;;20.24;82.87;101526.34;5048708;28;20405;-84
2021/07/17 05:33:42;;;;;;;0.20;0.20;;;;;;;21.34;78.43;101517.66;5043391;28;20053;-84
2021/07/17 05:36:16;;;;;;;0.20;0.20;;;;;;;21.89;75.01;101512.31;5033587;28;20049;-84
2021/07/17 05:38:49;;;;;;;0.20;0.20;;;;;;;22.28;74.48;101499.13;5047257;28;20398;-86
2021/07/17 05:41:22;;;;;;;0.20;0.20;;;;;;;22.27;73.27;101516.09;5042752;28;20044;-86
2021/07/17 05:43:52;;;;;;;0.20;0.20;;;;;;;22.01;73.31;101522.66;5043173;28;20049;-86
2021/07/17 05:46:25;;;;;;;0.10;0.10;;;;;;;21.36;74.16;101534.75;5047703;28;20045;-88
2021/07/17 05:49:00;;;;;;;0.20;0.20;;;;;;;20.51;79.45;101530.72;5034466;28;20059;-87
2021/07/17 05:51:34;;;;;;;0.15;0.15;;;;;;;20.42;79.79;101531.88;5030199;28;20501;-86
2021/07/17 05:54:07;;;;;;;0.15;0.15;;;;;;;20.62;81.63;101541.44;5032589;28;20060;-85
2021/07/17 05:56:40;;;;;;;0.10;0.10;;;;;;;20.43;79.49;101548.13;5051303;28;20048;-87
2021/07/17 05:59:16;;;;;;;0.10;0.10;;;;;;;19.93;80.53;101548.56;5033476;28;20053;-84
2021/07/17 06:01:50;;;;;;;0.10;0.10;;;;;;;19.68;81.60;101562.81;5045039;28;20052;-84
2021/07/17 06:04:23;;;;;;;0.10;0.10;;;;;;;20.13;80.68;101559.00;5045122;28;20052;-86
2021/07/17 06:06:58;;;;;;;0.10;0.10;;;;;;;19.93;80.64;101554.94;5029363;28;20458;-87
2021/07/17 06:09:31;;;;;;;0.10;0.10;;;;;;;20.29;81.09;101559.34;5027923;28;20056;-85
2021/07/17 06:12:05;;;;;;;0.10;0.10;;;;;;;19.76;80.29;101569.50;5043737;28;20041;-87
2021/07/17 06:14:44;;;;;;;0.10;0.10;;;;;;;19.79;79.26;101582.66;5041498;28;20389;-87
2021/07/17 06:17:17;;;;;;;0.10;0.10;;;;;;;19.96;79.49;101575.56;5029071;28;20053;-86
2021/07/17 06:19:50;;;;;;;0.20;0.20;;;;;;;19.62;79.19;101585.34;5027744;28;20056;-84
2021/07/17 06:22:27;;;;;;;0.10;0.10;;;;;;;19.81;78.53;101566.59;5045151;28;20045;-85
2021/07/17 06:25:01;;;;;;;0.10;0.10;;;;;;;19.95;78.63;101569.22;5022617;28;20056;-86
2021/07/17 06:27:35;;;;;;;0.13;0.13;;;;;;;20.14;77.76;101573.66;5040498;28;20053;-85
2021/07/17 06:30:12;;;;;;;0.13;0.13;;;;;;;19.64;76.79;101561.81;5044500;28;20045;-84
2021/07/17 06:32:46;;;;;;;0.10;0.10;;;;;;;19.79;77.92;101573.53;5041357;28;20053;-84
2021/07/17 06:35:19;;;;;;;0.10;0.10;;;;;;;19.80;76.19;101573.25;5043998;28;20041;-85
2021/07/17 06:37:52;;;;;;;0.10;0.10;;;;;;;19.88;76.83;101566.94;5036263;28;20570;-86
2021/07/17 06:40:26;;;;;;;0.10;0.10;;;;;;;20.13;77.25;101560.97;5047253;28;20045;-84
2021/07/17 06:42:54;;;;;;;0.20;0.10;;;;;;;19.91;75.49;101572.97;5044912;28;20072;-85
2021/07/17 06:45:29;;;;;;;0.10;0.10;;;;;;;19.75;73.05;101578.91;5026384;28;20053;-86
2021/07/17 06:48:05;;;;;;;0.17;0.17;;;;;;;19.82;72.75;101578.47;5045730;28;20045;-85
2021/07/17 06:50:38;;;;;;;0.13;0.13;;;;;;;19.64;72.64;101561.81;5026557;28;20053;-85
2021/07/17 06:53:12;;;;;;;0.10;0.10;;;;;;;19.87;76.75;101581.06;5025126;28;20056;-86
2021/07/17 06:55:45;;;;;;;0.10;0.10;;;;;;;19.74;72.09;101582.00;5045265;28;20037;-86
2021/07/17 06:58:20;;;;;;;0.10;0.10;;;;;;;19.73;70.43;101580.34;5029223;28;20056;-86
2021/07/17 07:00:58;;;;;;;0.10;0.10;;;;;;;19.90;72.58;101587.91;5024637;28;20056;-86
2021/07/17 07:03:31;;;;;;;0.10;0.10;;;;;;;19.96;71.50;101584.66;5026919;28;20519;-87
2021/07/17 07:06:05;;;;;;;0.10;0.10;;;;;;;20.26;71.88;101595.09;5031128;28;20082;-90
2021/07/17 07:08:38;;;;;;;0.10;0.10;;;;;;;20.18;70.88;101580.97;5027736;28;20052;-86
2021/07/17 07:11:15;;;;;;;0.10;0.10;;;;;;;20.26;70.06;101584.06;5043655;28;20056;-86
2021/07/17 07:13:49;;;;;;;0.10;0.10;;;;;;;20.18;72.65;101586.50;5048014;28;20049;-87
2021/07/17 07:16:22;;;;;;;0.10;0.10;;;;;;;20.21;71.39;101579.50;5026514;28;20073;-86
2021/07/17 07:18:55;;;;;;;0.10;0.10;;;;;;;20.21;71.20;101594.13;5039279;28;20045;-84
2021/07/17 07:21:29;;;;;;;0.13;0.13;;;;;;;20.21;71.25;101594.13;5045833;28;20454;-86
2021/07/17 07:23:57;;;;;;;0.10;0.10;;;;;;;20.24;71.17;101600.16;5024280;28;20061;-86
2021/07/17 07:26:30;;;;;;;0.10;0.10;;;;;;;20.32;72.18;101591.88;5046466;28;20041;-87
2021/07/17 07:29:06;;;;;;;0.10;0.10;;;;;;;20.60;70.89;101590.75;5041825;28;20072;-85
2021/07/17 07:31:40;;;;;;;0.10;0.10;;;;;;;20.80;68.95;101587.34;5029869;28;20065;-84
2021/07/17 07:34:14;;;;;;;0.10;0.10;;;;;;;20.52;66.47;101573.84;5049594;28;20056;-84
2021/07/17 07:36:47;;;;;;;0.10;0.10;;;;;;;20.67;68.22;101589.13;5040825;28;20079;-83
2021/07/17 07:39:22;;;;;;;0.10;0.10;;;;;;;20.71;68.92;101583.75;5025240;28;20084;-86
2021/07/17 07:41:57;;;;;;;0.13;0.10;;;;;;;20.35;66.36;101573.81;5022883;28;20063;-86
2021/07/17 07:44:32;;;;;;;0.10;0.10;;;;;;;20.63;70.13;101581.78;5022733;28;20061;-84
2021/07/17 07:47:08;;;;;;;0.10;0.10;;;;;;;20.81;67.53;101582.59;5044543;28;20390;-86
2021/07/17 07:49:44;;;;;;;0.10;0.10;;;;;;;20.72;64.83;101586.19;5034289;28;20053;-86
2021/07/17 07:52:18;;;;;;;0.10;0.10;;;;;;;20.80;66.14;101589.28;5047034;28;20056;-86
2021/07/17 07:54:51;;;;;;;0.10;0.10;;;;;;;20.70;65.16;101584.91;5028049;28;20060;-85
2021/07/17 07:57:25;;;;;;;0.10;0.10;;;;;;;20.83;69.26;101585.88;5052851;28;20845;-84
2021/07/17 07:59:58;;;;;;;0.13;0.13;;;;;;;21.01;65.87;101587.44;5029369;28;20052;-86
2021/07/17 08:02:40;;;;;;;0.10;0.10;;;;;;;21.12;66.43;101587.13;5055361;28;20059;-86
2021/07/17 08:05:14;;;;;;;0.10;0.10;;;;;;;20.84;64.93;101573.66;5047823;28;20694;-85
2021/07/17 08:07:47;;;;;;;0.20;0.20;;;;;;;20.99;66.19;101583.38;5050484;28;20539;-85
2021/07/17 08:10:21;;;;;;;0.10;0.10;;;;;;;20.85;64.18;101589.09;5029480;28;20060;-85
2021/07/17 08:12:55;;;;;;;0.13;0.10;;;;;;;21.19;66.66;101587.41;5021242;28;20064;-86
2021/07/17 08:15:29;;;;;;;0.10;0.10;;;;;;;21.20;66.39;101584.31;5044343;28;20849;-85
2021/07/17 08:18:04;;;;;;;0.10;0.10;;;;;;;21.20;66.20;101586.28;5044800;28;20544;-84
2021/07/17 08:20:46;;;;;;;0.10;0.10;;;;;;;21.38;68.93;101576.75;5053145;28;20044;-88
2021/07/17 08:23:22;;;;;;;0.10;0.10;;;;;;;21.62;66.96;101589.22;5046396;28;20036;-84
2021/07/17 08:25:56;;;;;;;0.10;0.10;;;;;;;21.54;62.65;101584.53;5042788;28;20045;-85
2021/07/17 08:28:29;;;;;;;0.10;0.10;;;;;;;21.45;62.95;101592.03;5046649;28;20055;-85
2021/07/17 08:31:04;;;;;;;0.10;0.10;;;;;;;21.63;64.45;101590.06;5019693;28;20056;-86
2021/07/17 08:33:39;;;;;;;0.20;0.20;;;;;;;21.59;61.80;101591.88;5029144;28;20060;-86
2021/07/17 08:36:12;;;;;;;0.20;0.20;;;;;;;21.73;63.11;101597.97;5047648;28;20052;-85
2021/07/17 08:38:46;;;;;;;0.20;0.20;;;;;;;21.47;62.25;101595.28;5028094;28;20049;-84
2021/07/17 08:41:26;;;;;;;0.10;0.10;;;;;;;21.26;61.11;101584.94;5028334;28;20064;-84
2021/07/17 08:43:59;;;;;;;0.20;0.20;;;;;;;21.50;62.42;101591.84;5041045;28;20489;-85
2021/07/17 08:46:29;;;;;;;0.10;0.10;;;;;;;21.37;62.39;101585.41;5039939;28;20049;-86
2021/07/17 08:49:06;;;;;;;0.10;0.10;;;;;;;21.53;63.29;101580.97;5025060;28;20056;-85
2021/07/17 08:51:34;;;;;;;0.10;0.10;;;;;;;21.57;61.50;101594.94;5043436;28;20056;-84
2021/07/17 08:54:12;;;;;;;0.10;0.10;;;;;;;21.56;63.21;101591.38;5029851;28;20057;-85
2021/07/17 08:56:46;;;;;;;0.10;0.10;;;;;;;21.57;63.61;101600.47;5025090;28;20063;-85
2021/07/17 08:59:19;;;;;;;0.10;0.10;;;;;;;21.93;65.00;101601.94;5026340;28;20437;-84
2021/07/17 09:01:53;;;;;;;0.10;0.10;;;;;;;21.78;60.81;101603.34;5043449;28;20749;-85
2021/07/17 09:04:29;;;;;;;0.10;0.10;;;;;;;21.81;60.68;101588.81;5029403;28;20052;-86
2021/07/17 09:07:03;;;;;;;0.20;0.20;;;;;;;22.04;60.56;101605.13;5045097;28;20045;-85
2021/07/17 09:09:38;;;;;;;0.10;0.10;;;;;;;22.00;61.49;101596.69;5040974;28;20048;-86
2021/07/17 09:12:22;;;;;;;0.10;0.10;;;;;;;21.99;59.83;101592.28;5018077;28;20061;-88
2021/07/17 09:14:55;;;;;;;0.17;0.17;;;;;;;21.67;60.49;101593.78;5043735;28;20045;-84
2021/07/17 09:17:30;;;;;;;0.20;0.20;;;;;;;21.77;60.69;101607.25;5048501;28;20052;-85
2021/07/17 09:20:25;;;;;;;0.20;0.20;;;;;;;22.01;61.68;101605.81;5049477;28;20060;-85
2021/07/17 09:22:58;;;;;;;0.10;0.10;;;;;;;22.44;63.08;101601.13;5036372;28;20656;-84
2021/07/17 09:25:36;;;;;;;;;;;;;;;22.58;61.78;101594.16;5044819;28;20796;-83
2021/07/17 09:28:20;;;;;;;0.10;0.10;;;;;;;22.48;62.13;101590.97;5046230;28;19932;-85
2021/07/17 09:30:56;;;;;;;0.10;0.10;;;;;;;22.41;61.41;101595.13;5019484;28;20063;-85
2021/07/17 09:33:27;;;;;;;0.10;0.10;;;;;;;22.64;63.13;101602.28;5048525;28;20040;-83
2021/07/17 09:36:03;;;;;;;0.20;0.20;;;;;;;22.56;59.60;101581.78;5046287;28;20032;-84
2021/07/17 09:38:38;;;;;;;0.10;0.10;;;;;;;22.50;60.37;101597.81;5040989;28;20052;-85
2021/07/17 09:41:14;;;;;;;0.10;0.10;;;;;;;22.58;61.28;101591.38;5027528;28;20061;-85
2021/07/17 09:44:03;;;;;;;0.10;0.10;;;;;;;22.42;60.09;101579.28;5045850;28;20731;-86
2021/07/17 09:46:44;;;;;;;0.10;0.10;;;;;;;22.48;61.94;101586.22;5030979;28;20060;-86
2021/07/17 09:49:20;;;;;;;0.10;0.10;;;;;;;22.76;62.20;101585.69;5030815;28;20049;-85
2021/07/17 09:52:08;;;;;;;0.10;0.10;;;;;;;22.58;61.12;101588.59;5029208;28;20057;-85
2021/07/17 09:55:03;;;;;;;0.10;0.10;;;;;;;22.76;62.56;101578.16;5035267;28;20095;-85
2021/07/17 09:57:32;;;;;;;0.10;0.10;;;;;;;22.79;63.35;101586.94;5028822;28;20797;-83
2021/07/17 10:00:11;;;;;;;0.10;0.10;;;;;;;22.87;61.98;101581.31;5030720;28;20057;-87
2021/07/17 10:02:40;;;;;;;0.10;0.10;;;;;;;22.65;59.68;101581.69;5022883;28;20059;-84
2021/07/17 10:05:18;;;;;;;0.10;0.10;;;;;;;22.62;61.00;101579.59;5021885;28;20061;-84
2021/07/17 10:08:08;;;;;;;0.20;0.20;;;;;;;22.74;62.10;101561.06;5026839;28;20052;-86
2021/07/17 10:10:38;;;;;;;0.10;0.10;;;;;;;23.02;61.04;101581.81;5031673;28;20052;-89
2021/07/17 10:13:41;;;;;;;0.15;0.15;;;;;;;23.16;60.14;101582.34;5033983;28;20068;-86
2021/07/17 10:16:21;;;;;;;0.10;0.10;;;;;;;22.93;60.64;101568.03;5031490;28;20052;-87
2021/07/17 10:18:51;;;;;;;0.15;0.15;;;;;;;23.30;61.91;101589.53;5050225;28;20052;-86
2021/07/17 10:21:25;;;;;;;0.10;0.10;;;;;;;23.50;59.86;101583.06;5049548;28;20076;-86
2021/07/17 10:23:55;;;;;;;0.10;0.10;;;;;;;23.55;62.34;101585.63;5038847;28;20067;-88
2021/07/17 10:26:30;;;;;;;0.10;0.10;;;;;;;23.15;57.66;101558.50;5048596;28;20060;-89
2021/07/17 10:29:06;;;;;;;0.52;0.10;;;;;;;23.08;60.03;101574.91;5031302;28;20045;-89
2021/07/17 10:31:38;;;;;;;0.10;0.10;;;;;;;23.19;61.12;101562.22;4998751;28;20040;-86
2021/07/17 10:34:59;;;;;;;0.10;0.10;;;;;;;23.49;61.58;101583.41;5030581;28;20053;-87
2021/07/17 10:37:57;;;;;;;0.10;0.10;;;;;;;23.70;61.11;101581.34;5029118;28;20539;-89
2021/07/17 10:40:29;;;;;;;0.20;0.20;;;;;;;23.69;60.31;101559.47;5051848;28;20052;-88
2021/07/17 10:43:26;;;;;;;0.10;0.10;;;;;;;23.65;59.89;101578.78;5032010;28;20048;-88
2021/07/17 10:45:54;;;;;;;0.20;0.20;;;;;;;23.70;58.70;101561.09;5035937;28;20052;-86
2021/07/17 10:48:53;;;;;;;0.10;0.10;;;;;;;23.92;62.54;101577.28;5032292;28;20424;-87
2021/07/17 10:51:32;;;;;;;0.10;0.10;;;;;;;23.91;58.75;101527.63;5030232;28;20057;-86
2021/07/17 10:54:09;;;;;;;0.10;0.10;;;;;;;23.59;57.50;101555.19;5035853;28;20061;-87
2021/07/17 10:56:54;;;;;;;0.10;0.10;;;;;;;23.48;58.02;101551.22;5052951;28;20044;-86
2021/07/17 10:59:49;;;;;;;0.30;0.20;;;;;;;23.68;58.42;101577.28;5036253;28;20781;-87
2021/07/17 11:02:25;;;;;;;0.10;0.10;;;;;;;23.67;56.17;101561.75;5034899;28;20056;-86
2021/07/17 11:04:59;;;;;;;0.20;0.20;;;;;;;23.87;57.14;101565.56;5033666;28;20052;-86
2021/07/17 11:07:34;;;;;;;0.10;0.10;;;;;;;24.05;57.91;101574.50;5044332;28;20059;-86
2021/07/17 11:10:22;;;;;;;0.20;0.20;;;;;;;24.30;57.23;101566.09;5047875;28;20781;-87
2021/07/17 11:13:00;;;;;;;0.10;0.10;;;;;;;24.60;57.66;101564.56;5035114;28;20532;-84
2021/07/17 11:15:51;;;;;;;0.13;0.13;;;;;;;24.38;54.61;101570.69;5042660;28;20055;-84
2021/07/17 11:18:40;;;;;;;0.10;0.10;;;;;;;24.23;56.72;101566.69;5042306;28;20049;-84
2021/07/17 11:21:25;;;;;;;0.10;0.10;;;;;;;24.15;56.36;101570.41;5044381;28;20508;-84
2021/07/17 11:24:06;;;;;;;0.10;0.10;;;;;;;24.58;57.73;101566.09;5050238;28;20055;-85
2021/07/17 11:26:39;;;;;;;0.10;0.10;;;;;;;24.21;54.43;101569.81;5027856;28;20083;-86
2021/07/17 11:29:16;;;;;;;0.10;0.10;;;;;;;24.13;55.44;101567.16;5030934;28;20061;-93
2021/07/17 11:31:56;;;;;;;0.10;0.10;;;;;;;24.12;55.68;101552.47;5017729;28;20605;-85
2021/07/17 11:34:32;;;;;;;0.10;0.10;;;;;;;24.26;54.94;101558.47;5048490;28;20056;-84
2021/07/17 11:37:10;;;;;;;0.17;0.17;;;;;;;24.48;57.73;101556.28;5047484;28;20038;-86
2021/07/17 11:39:41;;;;;;;0.10;0.10;;;;;;;24.59;56.49;101551.81;5027356;28;20053;-85
2021/07/17 11:42:16;;;;;;;0.15;0.15;;;;;;;24.64;55.33;101549.97;5027601;28;20060;-85
2021/07/17 11:44:52;;;;;;;0.10;0.10;;;;;;;24.85;56.27;101553.34;5050597;28;20045;-87
2021/07/17 11:47:30;;;;;;;0.10;0.10;;;;;;;24.43;56.59;101553.75;5046947;28;20581;-85
2021/07/17 11:50:05;;;;;;;0.10;0.10;;;;;;;24.63;54.92;101565.06;5045899;28;20060;-87
2021/07/17 11:52:39;;;;;;;0.10;0.10;;;;;;;24.83;56.19;101539.00;5046287;28;20450;-88
2021/07/17 11:55:14;;;;;;;0.10;0.10;;;;;;;24.97;55.11;101533.00;5046448;28;20049;-86
2021/07/17 11:57:49;;;;;;;0.10;0.10;;;;;;;25.13;56.21;101538.53;5046720;28;20094;-84
2021/07/17 12:00:23;;;;;;;0.10;0.10;;;;;;;25.09;52.92;101543.22;5027714;28;20063;-85